sensor_id;sensor_type;location;lat;lon;timestamp;P1;durP1;ratioP1;P2;durP2;ratioP2
33246;SDS011;19606;50.108;19.804;2022-08-05T00:02:17;6.75;;;6.03;;
33246;SDS011;19606;50.108;19.804;2022-08-05T00:04:43;12.75;;;6.65;;
33246;SDS011;19606;50.108;19.804;2022-08-05T00:07:10;10.40;;;6.82;;
33246;SDS011;19606;50.108;19.804;2022-08-05T00:09:36;9.15;;;6.60;;
33246;SDS011;19606;50.108;19.804;2022-08-05T00:12:02;11.27;;;6.65;;
33246;SDS011;19606;50.108;19.804;2022-08-05T00:14:28;6.90;;;6.20;;
33246;SDS011;19606;50.108;19.804;2022-08-05T00:16:54;12.73;;;7.03;;
33246;SDS011;19606;50.108;19.804;2022-08-05T00:19:20;9.98;;;6.20;;
33246;SDS011;19606;50.108;19.804;2022-08-05T00:21:46;10.20;;;6.47;;
33246;SDS011;19606;50.108;19.804;2022-08-05T00:24:12;10.65;;;6.72;;
33246;SDS011;19606;50.108;19.804;2022-08-05T00:26:38;7.82;;;6.10;;
33246;SDS011;19606;50.108;19.804;2022-08-05T00:29:04;8.27;;;6.07;;
33246;SDS011;19606;50.108;19.804;2022-08-05T00:31:30;9.10;;;6.45;;
33246;SDS011;19606;50.108;19.804;2022-08-05T00:33:56;11.45;;;6.30;;
33246;SDS011;19606;50.108;19.804;2022-08-05T00:36:23;10.65;;;6.65;;
33246;SDS011;19606;50.108;19.804;2022-08-05T00:38:49;10.32;;;6.60;;
33246;SDS011;19606;50.108;19.804;2022-08-05T00:41:25;7.60;;;6.43;;
33246;SDS011;19606;50.108;19.804;2022-08-05T00:43:51;6.70;;;6.00;;
33246;SDS011;19606;50.108;19.804;2022-08-05T00:46:17;10.70;;;6.80;;
33246;SDS011;19606;50.108;19.804;2022-08-05T00:48:43;8.07;;;6.20;;
33246;SDS011;19606;50.108;19.804;2022-08-05T00:51:09;12.10;;;6.43;;
33246;SDS011;19606;50.108;19.804;2022-08-05T00:53:35;13.63;;;6.30;;
33246;SDS011;19606;50.108;19.804;2022-08-05T00:56:01;7.55;;;6.20;;
33246;SDS011;19606;50.108;19.804;2022-08-05T00:58:28;8.43;;;6.32;;
33246;SDS011;19606;50.108;19.804;2022-08-05T01:00:53;9.80;;;6.70;;
33246;SDS011;19606;50.108;19.804;2022-08-05T01:03:20;8.95;;;6.45;;
33246;SDS011;19606;50.108;19.804;2022-08-05T01:05:46;8.43;;;6.53;;
33246;SDS011;19606;50.108;19.804;2022-08-05T01:08:12;9.07;;;7.47;;
33246;SDS011;19606;50.108;19.804;2022-08-05T01:10:50;8.10;;;6.35;;
33246;SDS011;19606;50.108;19.804;2022-08-05T01:15:47;7.38;;;6.50;;
33246;SDS011;19606;50.108;19.804;2022-08-05T01:18:28;11.00;;;6.65;;
33246;SDS011;19606;50.108;19.804;2022-08-05T01:26:26;7.60;;;6.20;;
33246;SDS011;19606;50.108;19.804;2022-08-05T01:28:59;8.95;;;7.50;;
33246;SDS011;19606;50.108;19.804;2022-08-05T01:31:41;12.85;;;6.80;;
33246;SDS011;19606;50.108;19.804;2022-08-05T01:34:09;8.50;;;6.47;;
33246;SDS011;19606;50.108;19.804;2022-08-05T01:36:38;10.48;;;6.95;;
33246;SDS011;19606;50.108;19.804;2022-08-05T01:39:06;8.98;;;6.60;;
33246;SDS011;19606;50.108;19.804;2022-08-05T01:41:33;10.73;;;7.50;;
33246;SDS011;19606;50.108;19.804;2022-08-05T01:44:02;8.68;;;7.75;;
33246;SDS011;19606;50.108;19.804;2022-08-05T01:46:30;13.40;;;7.82;;
33246;SDS011;19606;50.108;19.804;2022-08-05T01:48:57;12.00;;;7.20;;
33246;SDS011;19606;50.108;19.804;2022-08-05T01:51:23;9.50;;;7.57;;
33246;SDS011;19606;50.108;19.804;2022-08-05T01:53:50;10.57;;;7.40;;
33246;SDS011;19606;50.108;19.804;2022-08-05T01:56:17;11.15;;;7.70;;
33246;SDS011;19606;50.108;19.804;2022-08-05T01:58:43;12.55;;;7.82;;
33246;SDS011;19606;50.108;19.804;2022-08-05T02:01:11;10.60;;;7.40;;
33246;SDS011;19606;50.108;19.804;2022-08-05T02:03:39;10.88;;;7.00;;
33246;SDS011;19606;50.108;19.804;2022-08-05T02:06:08;10.50;;;7.75;;
33246;SDS011;19606;50.108;19.804;2022-08-05T02:08:34;11.45;;;7.88;;
33246;SDS011;19606;50.108;19.804;2022-08-05T02:11:11;9.95;;;7.93;;
33246;SDS011;19606;50.108;19.804;2022-08-05T02:14:21;14.25;;;8.15;;
33246;SDS011;19606;50.108;19.804;2022-08-05T02:16:29;13.77;;;8.50;;
33246;SDS011;19606;50.108;19.804;2022-08-05T02:19:00;10.70;;;8.57;;
33246;SDS011;19606;50.108;19.804;2022-08-05T02:21:29;11.98;;;8.23;;
33246;SDS011;19606;50.108;19.804;2022-08-05T02:23:58;8.65;;;7.43;;
33246;SDS011;19606;50.108;19.804;2022-08-05T02:26:36;10.75;;;7.68;;
33246;SDS011;19606;50.108;19.804;2022-08-05T02:29:03;12.68;;;7.65;;
33246;SDS011;19606;50.108;19.804;2022-08-05T02:31:30;11.82;;;8.35;;
33246;SDS011;19606;50.108;19.804;2022-08-05T02:33:59;10.15;;;8.00;;
33246;SDS011;19606;50.108;19.804;2022-08-05T02:36:27;11.48;;;8.77;;
33246;SDS011;19606;50.108;19.804;2022-08-05T02:38:54;11.43;;;8.38;;
33246;SDS011;19606;50.108;19.804;2022-08-05T02:41:21;11.52;;;8.50;;
33246;SDS011;19606;50.108;19.804;2022-08-05T02:43:49;12.75;;;7.97;;
33246;SDS011;19606;50.108;19.804;2022-08-05T02:46:17;10.68;;;8.77;;
33246;SDS011;19606;50.108;19.804;2022-08-05T02:48:44;10.85;;;8.75;;
33246;SDS011;19606;50.108;19.804;2022-08-05T02:51:12;12.48;;;8.43;;
33246;SDS011;19606;50.108;19.804;2022-08-05T02:53:38;9.63;;;8.63;;
33246;SDS011;19606;50.108;19.804;2022-08-05T02:56:09;14.32;;;8.70;;
33246;SDS011;19606;50.108;19.804;2022-08-05T02:58:39;10.10;;;8.43;;
33246;SDS011;19606;50.108;19.804;2022-08-05T03:01:06;14.52;;;8.80;;
33246;SDS011;19606;50.108;19.804;2022-08-05T03:03:34;11.75;;;8.68;;
33246;SDS011;19606;50.108;19.804;2022-08-05T03:06:03;13.93;;;8.60;;
33246;SDS011;19606;50.108;19.804;2022-08-05T03:08:30;12.95;;;8.30;;
33246;SDS011;19606;50.108;19.804;2022-08-05T03:10:56;10.82;;;8.73;;
33246;SDS011;19606;50.108;19.804;2022-08-05T03:13:23;14.73;;;8.75;;
33246;SDS011;19606;50.108;19.804;2022-08-05T03:15:49;12.48;;;8.80;;
33246;SDS011;19606;50.108;19.804;2022-08-05T03:18:15;11.35;;;8.45;;
33246;SDS011;19606;50.108;19.804;2022-08-05T03:20:41;13.63;;;8.65;;
33246;SDS011;19606;50.108;19.804;2022-08-05T03:23:07;13.68;;;8.50;;
33246;SDS011;19606;50.108;19.804;2022-08-05T03:25:34;16.48;;;9.38;;
33246;SDS011;19606;50.108;19.804;2022-08-05T03:28:01;14.15;;;8.93;;
33246;SDS011;19606;50.108;19.804;2022-08-05T03:30:29;13.23;;;8.85;;
33246;SDS011;19606;50.108;19.804;2022-08-05T03:32:57;14.93;;;9.55;;
33246;SDS011;19606;50.108;19.804;2022-08-05T03:35:23;11.60;;;8.88;;
33246;SDS011;19606;50.108;19.804;2022-08-05T03:37:50;12.13;;;9.35;;
33246;SDS011;19606;50.108;19.804;2022-08-05T03:40:16;11.15;;;8.93;;
33246;SDS011;19606;50.108;19.804;2022-08-05T03:42:42;13.15;;;8.93;;
33246;SDS011;19606;50.108;19.804;2022-08-05T03:45:08;17.73;;;9.23;;
33246;SDS011;19606;50.108;19.804;2022-08-05T03:47:34;10.90;;;9.10;;
33246;SDS011;19606;50.108;19.804;2022-08-05T03:50:00;11.20;;;8.82;;
33246;SDS011;19606;50.108;19.804;2022-08-05T03:52:31;14.10;;;9.20;;
33246;SDS011;19606;50.108;19.804;2022-08-05T03:54:59;15.65;;;9.30;;
33246;SDS011;19606;50.108;19.804;2022-08-05T03:57:27;9.35;;;8.45;;
33246;SDS011;19606;50.108;19.804;2022-08-05T03:59:59;9.97;;;8.93;;
33246;SDS011;19606;50.108;19.804;2022-08-05T04:02:27;14.15;;;8.50;;
33246;SDS011;19606;50.108;19.804;2022-08-05T04:04:54;11.63;;;8.73;;
33246;SDS011;19606;50.108;19.804;2022-08-05T04:07:21;11.05;;;9.00;;
33246;SDS011;19606;50.108;19.804;2022-08-05T04:09:47;11.40;;;8.98;;
33246;SDS011;19606;50.108;19.804;2022-08-05T04:12:13;13.60;;;9.68;;
33246;SDS011;19606;50.108;19.804;2022-08-05T04:14:39;11.05;;;7.97;;
33246;SDS011;19606;50.108;19.804;2022-08-05T04:17:06;10.07;;;8.70;;
33246;SDS011;19606;50.108;19.804;2022-08-05T04:19:40;10.95;;;8.25;;
33246;SDS011;19606;50.108;19.804;2022-08-05T04:22:06;12.93;;;8.23;;
33246;SDS011;19606;50.108;19.804;2022-08-05T04:24:32;12.30;;;8.57;;
33246;SDS011;19606;50.108;19.804;2022-08-05T04:26:58;10.73;;;8.77;;
33246;SDS011;19606;50.108;19.804;2022-08-05T04:29:24;15.70;;;8.05;;
33246;SDS011;19606;50.108;19.804;2022-08-05T04:31:50;13.88;;;8.70;;
33246;SDS011;19606;50.108;19.804;2022-08-05T04:34:16;11.90;;;8.38;;
33246;SDS011;19606;50.108;19.804;2022-08-05T04:36:42;14.80;;;8.73;;
33246;SDS011;19606;50.108;19.804;2022-08-05T04:39:08;9.52;;;7.82;;
33246;SDS011;19606;50.108;19.804;2022-08-05T04:41:34;13.23;;;8.20;;
33246;SDS011;19606;50.108;19.804;2022-08-05T04:44:00;12.82;;;8.43;;
33246;SDS011;19606;50.108;19.804;2022-08-05T04:46:26;10.63;;;8.30;;
33246;SDS011;19606;50.108;19.804;2022-08-05T04:48:52;12.27;;;7.68;;
33246;SDS011;19606;50.108;19.804;2022-08-05T04:51:18;13.85;;;8.55;;
33246;SDS011;19606;50.108;19.804;2022-08-05T04:53:44;9.85;;;7.82;;
33246;SDS011;19606;50.108;19.804;2022-08-05T04:56:10;9.30;;;7.90;;
33246;SDS011;19606;50.108;19.804;2022-08-05T04:58:36;15.63;;;8.27;;
33246;SDS011;19606;50.108;19.804;2022-08-05T05:01:02;13.40;;;8.40;;
33246;SDS011;19606;50.108;19.804;2022-08-05T05:03:28;12.63;;;8.65;;
33246;SDS011;19606;50.108;19.804;2022-08-05T05:05:54;11.40;;;7.38;;
33246;SDS011;19606;50.108;19.804;2022-08-05T05:08:20;18.83;;;7.15;;
33246;SDS011;19606;50.108;19.804;2022-08-05T05:10:46;10.38;;;7.55;;
33246;SDS011;19606;50.108;19.804;2022-08-05T05:13:16;11.18;;;7.65;;
33246;SDS011;19606;50.108;19.804;2022-08-05T05:15:43;11.23;;;6.82;;
33246;SDS011;19606;50.108;19.804;2022-08-05T05:18:13;8.77;;;7.43;;
33246;SDS011;19606;50.108;19.804;2022-08-05T05:20:43;14.32;;;7.13;;
33246;SDS011;19606;50.108;19.804;2022-08-05T05:23:09;9.77;;;7.22;;
33246;SDS011;19606;50.108;19.804;2022-08-05T05:25:35;9.45;;;6.70;;
33246;SDS011;19606;50.108;19.804;2022-08-05T05:28:01;12.07;;;7.35;;
33246;SDS011;19606;50.108;19.804;2022-08-05T05:30:27;11.70;;;7.47;;
33246;SDS011;19606;50.108;19.804;2022-08-05T05:32:53;10.02;;;6.57;;
33246;SDS011;19606;50.108;19.804;2022-08-05T05:35:19;11.73;;;6.85;;
33246;SDS011;19606;50.108;19.804;2022-08-05T05:37:51;11.80;;;6.47;;
33246;SDS011;19606;50.108;19.804;2022-08-05T05:40:18;9.60;;;6.75;;
33246;SDS011;19606;50.108;19.804;2022-08-05T05:42:45;15.35;;;7.03;;
33246;SDS011;19606;50.108;19.804;2022-08-05T05:45:11;9.15;;;6.60;;
33246;SDS011;19606;50.108;19.804;2022-08-05T05:47:37;11.82;;;6.45;;
33246;SDS011;19606;50.108;19.804;2022-08-05T05:50:06;8.93;;;5.82;;
33246;SDS011;19606;50.108;19.804;2022-08-05T05:52:32;12.25;;;6.57;;
33246;SDS011;19606;50.108;19.804;2022-08-05T05:54:59;9.73;;;7.22;;
33246;SDS011;19606;50.108;19.804;2022-08-05T05:57:25;12.77;;;7.10;;
33246;SDS011;19606;50.108;19.804;2022-08-05T05:59:51;11.82;;;6.90;;
33246;SDS011;19606;50.108;19.804;2022-08-05T06:02:17;9.85;;;6.53;;
33246;SDS011;19606;50.108;19.804;2022-08-05T06:04:43;9.80;;;6.50;;
33246;SDS011;19606;50.108;19.804;2022-08-05T06:07:09;11.45;;;6.50;;
33246;SDS011;19606;50.108;19.804;2022-08-05T06:09:35;12.95;;;6.70;;
33246;SDS011;19606;50.108;19.804;2022-08-05T06:12:03;14.90;;;6.75;;
33246;SDS011;19606;50.108;19.804;2022-08-05T06:14:29;11.70;;;6.43;;
33246;SDS011;19606;50.108;19.804;2022-08-05T06:16:55;10.30;;;7.03;;
33246;SDS011;19606;50.108;19.804;2022-08-05T06:19:23;19.17;;;7.40;;
33246;SDS011;19606;50.108;19.804;2022-08-05T06:21:50;15.73;;;6.60;;
33246;SDS011;19606;50.108;19.804;2022-08-05T06:24:16;17.23;;;7.03;;
33246;SDS011;19606;50.108;19.804;2022-08-05T06:26:42;18.38;;;6.60;;
33246;SDS011;19606;50.108;19.804;2022-08-05T06:29:08;22.35;;;7.05;;
33246;SDS011;19606;50.108;19.804;2022-08-05T06:31:34;16.05;;;6.60;;
33246;SDS011;19606;50.108;19.804;2022-08-05T06:34:00;14.48;;;6.05;;
33246;SDS011;19606;50.108;19.804;2022-08-05T06:36:27;15.65;;;6.95;;
33246;SDS011;19606;50.108;19.804;2022-08-05T06:38:53;15.90;;;6.38;;
33246;SDS011;19606;50.108;19.804;2022-08-05T06:41:20;10.00;;;6.10;;
33246;SDS011;19606;50.108;19.804;2022-08-05T06:43:46;13.13;;;6.38;;
33246;SDS011;19606;50.108;19.804;2022-08-05T06:46:12;13.18;;;5.93;;
33246;SDS011;19606;50.108;19.804;2022-08-05T06:48:39;15.65;;;6.22;;
33246;SDS011;19606;50.108;19.804;2022-08-05T06:51:05;9.35;;;6.07;;
33246;SDS011;19606;50.108;19.804;2022-08-05T06:53:31;12.82;;;5.97;;
33246;SDS011;19606;50.108;19.804;2022-08-05T06:56:00;12.20;;;5.45;;
33246;SDS011;19606;50.108;19.804;2022-08-05T06:58:30;13.27;;;6.57;;
33246;SDS011;19606;50.108;19.804;2022-08-05T07:01:05;12.18;;;5.60;;
33246;SDS011;19606;50.108;19.804;2022-08-05T07:03:31;11.02;;;5.93;;
33246;SDS011;19606;50.108;19.804;2022-08-05T07:05:57;16.92;;;5.70;;
33246;SDS011;19606;50.108;19.804;2022-08-05T07:08:24;13.05;;;6.28;;
33246;SDS011;19606;50.108;19.804;2022-08-05T07:10:51;15.35;;;5.63;;
33246;SDS011;19606;50.108;19.804;2022-08-05T07:13:17;16.05;;;5.85;;
33246;SDS011;19606;50.108;19.804;2022-08-05T07:16:02;9.88;;;5.80;;
33246;SDS011;19606;50.108;19.804;2022-08-05T07:18:46;15.40;;;6.15;;
33246;SDS011;19606;50.108;19.804;2022-08-05T07:21:12;13.43;;;6.00;;
33246;SDS011;19606;50.108;19.804;2022-08-05T07:23:39;21.60;;;6.07;;
33246;SDS011;19606;50.108;19.804;2022-08-05T07:26:05;15.77;;;6.18;;
33246;SDS011;19606;50.108;19.804;2022-08-05T07:28:31;18.02;;;6.10;;
33246;SDS011;19606;50.108;19.804;2022-08-05T07:30:57;11.27;;;6.03;;
33246;SDS011;19606;50.108;19.804;2022-08-05T07:33:23;11.63;;;6.10;;
33246;SDS011;19606;50.108;19.804;2022-08-05T07:35:50;12.35;;;6.13;;
33246;SDS011;19606;50.108;19.804;2022-08-05T07:38:16;15.30;;;5.85;;
33246;SDS011;19606;50.108;19.804;2022-08-05T07:40:43;15.13;;;6.10;;
33246;SDS011;19606;50.108;19.804;2022-08-05T07:43:09;15.55;;;6.47;;
33246;SDS011;19606;50.108;19.804;2022-08-05T07:45:35;12.40;;;6.30;;
33246;SDS011;19606;50.108;19.804;2022-08-05T07:48:01;13.88;;;5.50;;
33246;SDS011;19606;50.108;19.804;2022-08-05T07:50:28;12.52;;;5.88;;
33246;SDS011;19606;50.108;19.804;2022-08-05T07:52:54;15.88;;;5.60;;
33246;SDS011;19606;50.108;19.804;2022-08-05T07:55:21;13.82;;;6.57;;
33246;SDS011;19606;50.108;19.804;2022-08-05T07:57:47;14.90;;;5.78;;
33246;SDS011;19606;50.108;19.804;2022-08-05T08:00:14;15.02;;;5.57;;
33246;SDS011;19606;50.108;19.804;2022-08-05T08:02:40;9.77;;;5.68;;
33246;SDS011;19606;50.108;19.804;2022-08-05T08:05:08;10.48;;;5.10;;
33246;SDS011;19606;50.108;19.804;2022-08-05T08:07:34;7.80;;;5.60;;
33246;SDS011;19606;50.108;19.804;2022-08-05T08:10:00;8.32;;;5.10;;
33246;SDS011;19606;50.108;19.804;2022-08-05T08:12:26;11.70;;;5.43;;
33246;SDS011;19606;50.108;19.804;2022-08-05T08:14:52;7.03;;;5.10;;
33246;SDS011;19606;50.108;19.804;2022-08-05T08:17:18;14.10;;;5.50;;
33246;SDS011;19606;50.108;19.804;2022-08-05T08:19:44;12.30;;;5.80;;
33246;SDS011;19606;50.108;19.804;2022-08-05T08:22:10;9.82;;;5.38;;
33246;SDS011;19606;50.108;19.804;2022-08-05T08:24:37;9.45;;;5.63;;
33246;SDS011;19606;50.108;19.804;2022-08-05T08:27:04;11.10;;;5.78;;
33246;SDS011;19606;50.108;19.804;2022-08-05T08:29:30;10.55;;;5.72;;
33246;SDS011;19606;50.108;19.804;2022-08-05T08:31:56;11.13;;;5.55;;
33246;SDS011;19606;50.108;19.804;2022-08-05T08:34:23;11.15;;;6.38;;
33246;SDS011;19606;50.108;19.804;2022-08-05T08:36:49;11.32;;;6.07;;
33246;SDS011;19606;50.108;19.804;2022-08-05T08:39:15;14.82;;;6.35;;
33246;SDS011;19606;50.108;19.804;2022-08-05T08:41:48;18.52;;;6.13;;
33246;SDS011;19606;50.108;19.804;2022-08-05T08:44:16;12.55;;;6.22;;
33246;SDS011;19606;50.108;19.804;2022-08-05T08:46:43;13.13;;;6.35;;
33246;SDS011;19606;50.108;19.804;2022-08-05T08:49:11;9.05;;;6.05;;
33246;SDS011;19606;50.108;19.804;2022-08-05T08:51:38;12.68;;;6.10;;
33246;SDS011;19606;50.108;19.804;2022-08-05T08:54:05;14.60;;;6.60;;
33246;SDS011;19606;50.108;19.804;2022-08-05T08:56:31;12.63;;;6.50;;
33246;SDS011;19606;50.108;19.804;2022-08-05T08:58:58;13.10;;;6.53;;
33246;SDS011;19606;50.108;19.804;2022-08-05T09:01:25;14.45;;;7.25;;
33246;SDS011;19606;50.108;19.804;2022-08-05T09:03:52;12.27;;;6.32;;
33246;SDS011;19606;50.108;19.804;2022-08-05T09:06:18;10.93;;;6.65;;
33246;SDS011;19606;50.108;19.804;2022-08-05T09:08:44;14.73;;;7.13;;
33246;SDS011;19606;50.108;19.804;2022-08-05T09:11:10;11.55;;;7.28;;
33246;SDS011;19606;50.108;19.804;2022-08-05T09:13:37;14.93;;;7.38;;
33246;SDS011;19606;50.108;19.804;2022-08-05T09:16:03;12.60;;;6.97;;
33246;SDS011;19606;50.108;19.804;2022-08-05T09:18:32;15.73;;;7.78;;
33246;SDS011;19606;50.108;19.804;2022-08-05T09:20:58;9.10;;;6.78;;
33246;SDS011;19606;50.108;19.804;2022-08-05T09:23:24;11.25;;;7.53;;
33246;SDS011;19606;50.108;19.804;2022-08-05T09:25:51;9.90;;;7.82;;
33246;SDS011;19606;50.108;19.804;2022-08-05T09:28:19;12.10;;;7.32;;
33246;SDS011;19606;50.108;19.804;2022-08-05T09:33:15;12.88;;;7.10;;
33246;SDS011;19606;50.108;19.804;2022-08-05T09:35:51;13.10;;;7.30;;
33246;SDS011;19606;50.108;19.804;2022-08-05T09:38:17;11.63;;;7.85;;
33246;SDS011;19606;50.108;19.804;2022-08-05T09:40:44;12.13;;;7.97;;
33246;SDS011;19606;50.108;19.804;2022-08-05T09:43:24;12.05;;;7.57;;
33246;SDS011;19606;50.108;19.804;2022-08-05T09:45:50;11.05;;;7.00;;
33246;SDS011;19606;50.108;19.804;2022-08-05T09:50:50;12.80;;;6.53;;
33246;SDS011;19606;50.108;19.804;2022-08-05T09:53:16;10.52;;;6.10;;
33246;SDS011;19606;50.108;19.804;2022-08-05T09:55:42;11.00;;;7.28;;
33246;SDS011;19606;50.108;19.804;2022-08-05T09:58:13;15.77;;;6.70;;
33246;SDS011;19606;50.108;19.804;2022-08-05T10:00:39;15.52;;;6.68;;
33246;SDS011;19606;50.108;19.804;2022-08-05T10:03:16;11.32;;;6.60;;
33246;SDS011;19606;50.108;19.804;2022-08-05T10:05:42;17.20;;;7.38;;
33246;SDS011;19606;50.108;19.804;2022-08-05T10:08:09;10.35;;;5.82;;
33246;SDS011;19606;50.108;19.804;2022-08-05T10:10:36;15.02;;;6.65;;
33246;SDS011;19606;50.108;19.804;2022-08-05T10:13:05;9.50;;;6.05;;
33246;SDS011;19606;50.108;19.804;2022-08-05T10:15:33;11.90;;;5.88;;
33246;SDS011;19606;50.108;19.804;2022-08-05T10:20:28;7.05;;;6.38;;
33246;SDS011;19606;50.108;19.804;2022-08-05T10:22:54;9.40;;;5.97;;
33246;SDS011;19606;50.108;19.804;2022-08-05T10:25:21;10.40;;;6.20;;
33246;SDS011;19606;50.108;19.804;2022-08-05T10:27:47;10.38;;;5.97;;
33246;SDS011;19606;50.108;19.804;2022-08-05T10:30:13;12.18;;;6.05;;
33246;SDS011;19606;50.108;19.804;2022-08-05T10:32:39;7.95;;;6.25;;
33246;SDS011;19606;50.108;19.804;2022-08-05T10:35:06;8.95;;;5.80;;
33246;SDS011;19606;50.108;19.804;2022-08-05T10:37:32;7.25;;;6.22;;
33246;SDS011;19606;50.108;19.804;2022-08-05T10:39:59;7.78;;;5.53;;
33246;SDS011;19606;50.108;19.804;2022-08-05T10:42:28;7.38;;;6.30;;
33246;SDS011;19606;50.108;19.804;2022-08-05T10:44:54;7.95;;;5.72;;
33246;SDS011;19606;50.108;19.804;2022-08-05T10:47:24;6.15;;;5.55;;
33246;SDS011;19606;50.108;19.804;2022-08-05T10:49:59;8.38;;;5.85;;
33246;SDS011;19606;50.108;19.804;2022-08-05T10:55:05;8.27;;;5.15;;
33246;SDS011;19606;50.108;19.804;2022-08-05T10:57:32;9.57;;;5.95;;
33246;SDS011;19606;50.108;19.804;2022-08-05T11:00:14;8.82;;;4.80;;
33246;SDS011;19606;50.108;19.804;2022-08-05T11:05:26;6.15;;;5.30;;
33246;SDS011;19606;50.108;19.804;2022-08-05T11:08:02;8.93;;;4.60;;
33246;SDS011;19606;50.108;19.804;2022-08-05T11:10:29;7.25;;;4.82;;
33246;SDS011;19606;50.108;19.804;2022-08-05T11:12:55;12.13;;;5.00;;
33246;SDS011;19606;50.108;19.804;2022-08-05T11:17:48;6.32;;;4.65;;
33246;SDS011;19606;50.108;19.804;2022-08-05T11:20:34;10.98;;;4.75;;
33246;SDS011;19606;50.108;19.804;2022-08-05T11:25:58;9.75;;;5.25;;
33246;SDS011;19606;50.108;19.804;2022-08-05T11:36:05;7.47;;;4.75;;
33246;SDS011;19606;50.108;19.804;2022-08-05T11:41:07;8.30;;;4.43;;
33246;SDS011;19606;50.108;19.804;2022-08-05T11:43:39;8.77;;;4.90;;
33246;SDS011;19606;50.108;19.804;2022-08-05T11:46:08;8.23;;;5.57;;
33246;SDS011;19606;50.108;19.804;2022-08-05T11:48:34;5.28;;;4.80;;
33246;SDS011;19606;50.108;19.804;2022-08-05T11:51:00;5.38;;;4.78;;
33246;SDS011;19606;50.108;19.804;2022-08-05T11:53:26;9.30;;;5.07;;
33246;SDS011;19606;50.108;19.804;2022-08-05T11:55:54;5.22;;;4.50;;
33246;SDS011;19606;50.108;19.804;2022-08-05T11:58:24;5.22;;;4.72;;
33246;SDS011;19606;50.108;19.804;2022-08-05T12:03:19;5.43;;;4.65;;
33246;SDS011;19606;50.108;19.804;2022-08-05T12:05:45;5.18;;;4.70;;
33246;SDS011;19606;50.108;19.804;2022-08-05T12:08:11;7.72;;;5.03;;
33246;SDS011;19606;50.108;19.804;2022-08-05T12:10:37;5.50;;;4.80;;
33246;SDS011;19606;50.108;19.804;2022-08-05T12:13:03;5.45;;;4.75;;
33246;SDS011;19606;50.108;19.804;2022-08-05T12:15:29;9.20;;;4.97;;
33246;SDS011;19606;50.108;19.804;2022-08-05T12:17:55;10.30;;;5.28;;
33246;SDS011;19606;50.108;19.804;2022-08-05T12:20:26;6.25;;;4.78;;
33246;SDS011;19606;50.108;19.804;2022-08-05T12:23:06;8.45;;;5.47;;
33246;SDS011;19606;50.108;19.804;2022-08-05T12:27:57;5.97;;;4.65;;
33246;SDS011;19606;50.108;19.804;2022-08-05T12:30:23;5.25;;;4.47;;
33246;SDS011;19606;50.108;19.804;2022-08-05T12:32:50;4.75;;;4.30;;
33246;SDS011;19606;50.108;19.804;2022-08-05T12:35:20;4.90;;;4.40;;
33246;SDS011;19606;50.108;19.804;2022-08-05T12:37:47;4.85;;;4.15;;
33246;SDS011;19606;50.108;19.804;2022-08-05T12:40:14;7.55;;;3.95;;
33246;SDS011;19606;50.108;19.804;2022-08-05T12:42:40;5.22;;;4.75;;
33246;SDS011;19606;50.108;19.804;2022-08-05T12:45:09;5.22;;;4.07;;
33246;SDS011;19606;50.108;19.804;2022-08-05T12:47:35;4.70;;;4.22;;
33246;SDS011;19606;50.108;19.804;2022-08-05T12:50:11;4.32;;;3.92;;
33246;SDS011;19606;50.108;19.804;2022-08-05T12:52:37;6.50;;;4.15;;
33246;SDS011;19606;50.108;19.804;2022-08-05T12:55:16;6.78;;;4.22;;
33246;SDS011;19606;50.108;19.804;2022-08-05T12:57:42;8.77;;;4.00;;
33246;SDS011;19606;50.108;19.804;2022-08-05T13:00:18;4.93;;;3.90;;
33246;SDS011;19606;50.108;19.804;2022-08-05T13:02:44;4.32;;;3.92;;
33246;SDS011;19606;50.108;19.804;2022-08-05T13:05:10;7.43;;;3.78;;
33246;SDS011;19606;50.108;19.804;2022-08-05T13:07:38;3.88;;;3.58;;
33246;SDS011;19606;50.108;19.804;2022-08-05T13:10:09;4.88;;;4.13;;
33246;SDS011;19606;50.108;19.804;2022-08-05T13:12:40;9.00;;;4.05;;
33246;SDS011;19606;50.108;19.804;2022-08-05T13:15:09;8.63;;;4.00;;
33246;SDS011;19606;50.108;19.804;2022-08-05T13:17:35;5.47;;;3.85;;
33246;SDS011;19606;50.108;19.804;2022-08-05T13:22:28;5.75;;;4.20;;
33246;SDS011;19606;50.108;19.804;2022-08-05T13:24:55;4.60;;;4.20;;
33246;SDS011;19606;50.108;19.804;2022-08-05T13:27:34;5.10;;;4.32;;
33246;SDS011;19606;50.108;19.804;2022-08-05T13:30:01;8.20;;;4.43;;
33246;SDS011;19606;50.108;19.804;2022-08-05T13:32:27;6.25;;;3.88;;
33246;SDS011;19606;50.108;19.804;2022-08-05T13:34:53;4.90;;;3.38;;
33246;SDS011;19606;50.108;19.804;2022-08-05T13:37:20;8.90;;;3.28;;
33246;SDS011;19606;50.108;19.804;2022-08-05T13:39:47;3.10;;;2.72;;
33246;SDS011;19606;50.108;19.804;2022-08-05T13:42:13;4.28;;;3.00;;
33246;SDS011;19606;50.108;19.804;2022-08-05T13:44:40;4.57;;;2.70;;
33246;SDS011;19606;50.108;19.804;2022-08-05T13:47:06;7.47;;;3.08;;
33246;SDS011;19606;50.108;19.804;2022-08-05T13:49:32;3.22;;;2.85;;
33246;SDS011;19606;50.108;19.804;2022-08-05T13:52:07;4.30;;;2.92;;
33246;SDS011;19606;50.108;19.804;2022-08-05T13:54:33;6.07;;;3.47;;
33246;SDS011;19606;50.108;19.804;2022-08-05T13:56:59;4.40;;;3.00;;
33246;SDS011;19606;50.108;19.804;2022-08-05T13:59:25;4.65;;;4.05;;
33246;SDS011;19606;50.108;19.804;2022-08-05T14:01:52;3.75;;;3.45;;
33246;SDS011;19606;50.108;19.804;2022-08-05T14:04:18;3.35;;;3.00;;
33246;SDS011;19606;50.108;19.804;2022-08-05T14:07:26;5.72;;;3.30;;
33246;SDS011;19606;50.108;19.804;2022-08-05T14:09:53;9.32;;;3.60;;
33246;SDS011;19606;50.108;19.804;2022-08-05T14:12:19;4.35;;;3.70;;
33246;SDS011;19606;50.108;19.804;2022-08-05T14:14:45;6.43;;;3.40;;
33246;SDS011;19606;50.108;19.804;2022-08-05T14:17:11;7.15;;;3.38;;
33246;SDS011;19606;50.108;19.804;2022-08-05T14:19:39;3.90;;;3.30;;
33246;SDS011;19606;50.108;19.804;2022-08-05T14:22:05;5.07;;;3.40;;
33246;SDS011;19606;50.108;19.804;2022-08-05T14:24:31;5.38;;;3.40;;
33246;SDS011;19606;50.108;19.804;2022-08-05T14:26:57;6.90;;;3.60;;
33246;SDS011;19606;50.108;19.804;2022-08-05T14:29:23;4.70;;;3.70;;
33246;SDS011;19606;50.108;19.804;2022-08-05T14:31:49;5.00;;;3.53;;
33246;SDS011;19606;50.108;19.804;2022-08-05T14:34:15;4.70;;;3.50;;
33246;SDS011;19606;50.108;19.804;2022-08-05T14:36:41;4.22;;;3.58;;
33246;SDS011;19606;50.108;19.804;2022-08-05T14:39:07;4.32;;;3.92;;
33246;SDS011;19606;50.108;19.804;2022-08-05T14:41:33;4.95;;;3.80;;
33246;SDS011;19606;50.108;19.804;2022-08-05T14:43:59;4.97;;;4.03;;
33246;SDS011;19606;50.108;19.804;2022-08-05T14:46:26;4.63;;;3.80;;
33246;SDS011;19606;50.108;19.804;2022-08-05T14:48:52;4.55;;;3.95;;
33246;SDS011;19606;50.108;19.804;2022-08-05T14:51:18;5.20;;;3.85;;
33246;SDS011;19606;50.108;19.804;2022-08-05T14:53:44;3.83;;;3.53;;
33246;SDS011;19606;50.108;19.804;2022-08-05T14:56:11;4.25;;;3.50;;
33246;SDS011;19606;50.108;19.804;2022-08-05T14:58:37;7.43;;;3.78;;
33246;SDS011;19606;50.108;19.804;2022-08-05T15:01:03;7.35;;;3.80;;
33246;SDS011;19606;50.108;19.804;2022-08-05T15:03:30;8.93;;;3.67;;
33246;SDS011;19606;50.108;19.804;2022-08-05T15:05:56;3.45;;;3.25;;
33246;SDS011;19606;50.108;19.804;2022-08-05T15:08:22;7.85;;;3.97;;
33246;SDS011;19606;50.108;19.804;2022-08-05T15:10:49;3.90;;;3.60;;
33246;SDS011;19606;50.108;19.804;2022-08-05T15:13:15;7.13;;;3.90;;
33246;SDS011;19606;50.108;19.804;2022-08-05T15:15:41;5.15;;;3.85;;